sensor_id;sensor_type;location;lat;lon;timestamp;pressure;altitude;pressure_sealevel;temperature;humidity
10145;BME280;5113;41.822;23.564;2023-05-14T00:01:17;-11305.66;;;13.42;100.00
10145;BME280;5113;41.822;23.564;2023-05-14T00:04:23;-11307.50;;;13.48;100.00
10145;BME280;5113;41.822;23.564;2023-05-14T00:07:29;-11303.13;;;13.33;100.00
10145;BME280;5113;41.822;23.564;2023-05-14T00:10:36;-11304.41;;;13.37;100.00
10145;BME280;5113;41.822;23.564;2023-05-14T00:13:42;-11305.66;;;13.42;100.00
10145;BME280;5113;41.822;23.564;2023-05-14T00:16:49;-11306.78;;;13.46;100.00
10145;BME280;5113;41.822;23.564;2023-05-14T00:19:55;-11304.25;;;13.37;100.00
10145;BME280;5113;41.822;23.564;2023-05-14T00:23:02;-11307.91;;;13.50;100.00
10145;BME280;5113;41.822;23.564;2023-05-14T00:26:09;-11305.94;;;13.43;100.00
10145;BME280;5113;41.822;23.564;2023-05-14T00:29:15;-11306.22;;;13.44;100.00
10145;BME280;5113;41.822;23.564;2023-05-14T00:32:22;-11306.09;;;13.43;100.00
10145;BME280;5113;41.822;23.564;2023-05-14T00:35:29;-11301.44;;;13.27;100.00
10145;BME280;5113;41.822;23.564;2023-05-14T00:38:35;-11302.28;;;13.30;100.00
10145;BME280;5113;41.822;23.564;2023-05-14T00:41:41;-11301.44;;;13.27;100.00
10145;BME280;5113;41.822;23.564;2023-05-14T00:44:47;-11303.41;;;13.34;100.00
10145;BME280;5113;41.822;23.564;2023-05-14T00:47:55;-11301.72;;;13.28;100.00
10145;BME280;5113;41.822;23.564;2023-05-14T00:51:01;-11295.53;;;13.05;100.00
10145;BME280;5113;41.822;23.564;2023-05-14T00:54:08;-11295.25;;;13.04;100.00
10145;BME280;5113;41.822;23.564;2023-05-14T00:57:14;-11289.63;;;12.84;100.00
10145;BME280;5113;41.822;23.564;2023-05-14T01:00:20;-11290.59;;;12.87;100.00
10145;BME280;5113;41.822;23.564;2023-05-14T01:03:29;-11293.00;;;12.96;100.00
10145;BME280;5113;41.822;23.564;2023-05-14T01:06:48;-11290.75;;;12.88;100.00
10145;BME280;5113;41.822;23.564;2023-05-14T01:09:59;-11290.75;;;12.88;100.00
10145;BME280;5113;41.822;23.564;2023-05-14T01:13:12;-11291.03;;;12.89;100.00
10145;BME280;5113;41.822;23.564;2023-05-14T01:16:25;-11283.56;;;12.62;100.00
10145;BME280;5113;41.822;23.564;2023-05-14T01:19:36;-11287.63;;;12.77;100.00
10145;BME280;5113;41.822;23.564;2023-05-14T01:22:45;-11282.84;;;12.60;100.00
10145;BME280;5113;41.822;23.564;2023-05-14T01:25:51;-11287.63;;;12.77;100.00
10145;BME280;5113;41.822;23.564;2023-05-14T01:29:01;-11282.00;;;12.56;100.00
10145;BME280;5113;41.822;23.564;2023-05-14T01:32:09;-11279.47;;;12.47;100.00
10145;BME280;5113;41.822;23.564;2023-05-14T01:35:16;-11279.91;;;12.49;100.00
10145;BME280;5113;41.822;23.564;2023-05-14T01:38:24;-11280.88;;;12.52;100.00
10145;BME280;5113;41.822;23.564;2023-05-14T01:41:34;-11279.06;;;12.46;100.00
10145;BME280;5113;41.822;23.564;2023-05-14T01:44:41;-11280.31;;;12.50;100.00
10145;BME280;5113;41.822;23.564;2023-05-14T01:47:47;-11280.31;;;12.50;100.00
10145;BME280;5113;41.822;23.564;2023-05-14T01:50:53;-11278.34;;;12.43;100.00
10145;BME280;5113;41.822;23.564;2023-05-14T01:54:01;-11274.97;;;12.31;100.00
10145;BME280;5113;41.822;23.564;2023-05-14T01:57:07;-11276.94;;;12.38;100.00
10145;BME280;5113;41.822;23.564;2023-05-14T02:00:14;-11277.22;;;12.39;100.00
10145;BME280;5113;41.822;23.564;2023-05-14T02:03:20;-11275.53;;;12.33;100.00
10145;BME280;5113;41.822;23.564;2023-05-14T02:06:26;-11274.41;;;12.29;100.00
10145;BME280;5113;41.822;23.564;2023-05-14T02:09:34;-11276.66;;;12.37;100.00
10145;BME280;5113;41.822;23.564;2023-05-14T02:12:40;-11274.97;;;12.31;100.00
10145;BME280;5113;41.822;23.564;2023-05-14T02:15:46;-11261.19;;;11.81;100.00
10145;BME280;5113;41.822;23.564;2023-05-14T02:18:52;-11271.59;;;12.19;100.00
10145;BME280;5113;41.822;23.564;2023-05-14T02:21:59;-11273.16;;;12.24;100.00
10145;BME280;5113;41.822;23.564;2023-05-14T02:25:08;-11269.91;;;12.13;100.00
10145;BME280;5113;41.822;23.564;2023-05-14T02:28:14;-11269.91;;;12.13;100.00
10145;BME280;5113;41.822;23.564;2023-05-14T02:31:20;-11268.78;;;12.09;100.00
10145;BME280;5113;41.822;23.564;2023-05-14T02:34:26;-11271.88;;;12.20;100.00
10145;BME280;5113;41.822;23.564;2023-05-14T02:37:33;-11271.19;;;12.17;100.00
10145;BME280;5113;41.822;23.564;2023-05-14T02:40:40;-11274.97;;;12.31;100.00
10145;BME280;5113;41.822;23.564;2023-05-14T02:43:46;-11275.53;;;12.33;100.00
10145;BME280;5113;41.822;23.564;2023-05-14T02:46:52;-11276.09;;;12.35;100.00
10145;BME280;5113;41.822;23.564;2023-05-14T02:49:59;-11274.69;;;12.30;100.00
10145;BME280;5113;41.822;23.564;2023-05-14T02:53:05;-11272.88;;;12.23;100.00
10145;BME280;5113;41.822;23.564;2023-05-14T02:56:13;-11272.88;;;12.23;100.00
10145;BME280;5113;41.822;23.564;2023-05-14T02:59:21;-11273.44;;;12.26;100.00
10145;BME280;5113;41.822;23.564;2023-05-14T03:02:27;-11271.59;;;12.19;100.00
10145;BME280;5113;41.822;23.564;2023-05-14T03:05:34;-11274.12;;;12.28;100.00
10145;BME280;5113;41.822;23.564;2023-05-14T03:08:40;-11276.25;;;12.36;100.00
10145;BME280;5113;41.822;23.564;2023-05-14T03:11:49;-11274.12;;;12.28;100.00
10145;BME280;5113;41.822;23.564;2023-05-14T03:14:55;-11274.12;;;12.28;100.00
10145;BME280;5113;41.822;23.564;2023-05-14T03:18:01;-11273.28;;;12.25;100.00
10145;BME280;5113;41.822;23.564;2023-05-14T03:21:07;-11274.69;;;12.30;100.00
10145;BME280;5113;41.822;23.564;2023-05-14T03:24:13;-11273.28;;;12.25;100.00
10145;BME280;5113;41.822;23.564;2023-05-14T03:27:20;-11275.69;;;12.34;100.00
10145;BME280;5113;41.822;23.564;2023-05-14T03:30:27;-11275.41;;;12.33;100.00
10145;BME280;5113;41.822;23.564;2023-05-14T03:33:33;-11273.44;;;12.26;100.00
10145;BME280;5113;41.822;23.564;2023-05-14T03:36:39;-11275.53;;;12.33;100.00
10145;BME280;5113;41.822;23.564;2023-05-14T03:39:45;-11273.56;;;12.26;100.00
10145;BME280;5113;41.822;23.564;2023-05-14T03:42:53;-11276.09;;;12.35;100.00
10145;BME280;5113;41.822;23.564;2023-05-14T03:45:59;-11275.13;;;12.32;100.00
10145;BME280;5113;41.822;23.564;2023-05-14T03:49:06;-11276.09;;;12.35;100.00
10145;BME280;5113;41.822;23.564;2023-05-14T03:52:12;-11272.59;;;12.22;100.00
10145;BME280;5113;41.822;23.564;2023-05-14T03:55:19;-11275.81;;;12.34;100.00
10145;BME280;5113;41.822;23.564;2023-05-14T03:58:26;-11275.69;;;12.34;100.00
10145;BME280;5113;41.822;23.564;2023-05-14T04:01:33;-11277.66;;;12.41;100.00
10145;BME280;5113;41.822;23.564;2023-05-14T04:04:39;-11277.78;;;12.41;100.00
10145;BME280;5113;41.822;23.564;2023-05-14T04:07:45;-11280.59;;;12.51;100.00
10145;BME280;5113;41.822;23.564;2023-05-14T04:10:52;-11281.59;;;12.55;100.00
10145;BME280;5113;41.822;23.564;2023-05-14T04:13:59;-11279.19;;;12.46;100.00
10145;BME280;5113;41.822;23.564;2023-05-14T04:17:05;-11274.00;;;12.28;100.00
10145;BME280;5113;41.822;23.564;2023-05-14T04:20:12;-11277.78;;;12.41;100.00
10145;BME280;5113;41.822;23.564;2023-05-14T04:23:18;-11276.38;;;12.36;100.00
10145;BME280;5113;41.822;23.564;2023-05-14T04:26:24;-11275.97;;;12.35;100.00
10145;BME280;5113;41.822;23.564;2023-05-14T04:29:31;-11274.12;;;12.28;100.00
10145;BME280;5113;41.822;23.564;2023-05-14T04:32:37;-11275.25;;;12.32;100.00
10145;BME280;5113;41.822;23.564;2023-05-14T04:35:44;-11276.09;;;12.35;100.00
10145;BME280;5113;41.822;23.564;2023-05-14T04:38:50;-11275.13;;;12.32;100.00
10145;BME280;5113;41.822;23.564;2023-05-14T04:41:57;-11272.16;;;12.21;100.00
10145;BME280;5113;41.822;23.564;2023-05-14T04:45:05;-11275.97;;;12.35;100.00
10145;BME280;5113;41.822;23.564;2023-05-14T04:48:12;-11273.72;;;12.27;100.00
10145;BME280;5113;41.822;23.564;2023-05-14T04:51:19;-11277.94;;;12.42;100.00
10145;BME280;5113;41.822;23.564;2023-05-14T04:54:25;-11277.94;;;12.42;100.00
10145;BME280;5113;41.822;23.564;2023-05-14T04:57:31;-11275.53;;;12.33;100.00
10145;BME280;5113;41.822;23.564;2023-05-14T05:00:39;-11279.19;;;12.46;100.00
10145;BME280;5113;41.822;23.564;2023-05-14T05:03:45;-11278.34;;;12.43;100.00
10145;BME280;5113;41.822;23.564;2023-05-14T05:06:51;-11274.69;;;12.30;100.00
10145;BME280;5113;41.822;23.564;2023-05-14T05:09:58;-11276.38;;;12.36;100.00
10145;BME280;5113;41.822;23.564;2023-05-14T05:13:04;-11277.50;;;12.40;100.00
10145;BME280;5113;41.822;23.564;2023-05-14T05:16:11;-11279.91;;;12.49;100.00
10145;BME280;5113;41.822;23.564;2023-05-14T05:19:17;-11279.47;;;12.47;100.00
10145;BME280;5113;41.822;23.564;2023-05-14T05:22:36;-11278.63;;;12.44;100.00
10145;BME280;5113;41.822;23.564;2023-05-14T05:25:42;-11278.63;;;12.44;100.00
10145;BME280;5113;41.822;23.564;2023-05-14T05:28:48;-11280.31;;;12.50;100.00
10145;BME280;5113;41.822;23.564;2023-05-14T05:31:56;-11279.63;;;12.48;100.00
10145;BME280;5113;41.822;23.564;2023-05-14T05:35:02;-11275.81;;;12.34;100.00
10145;BME280;5113;41.822;23.564;2023-05-14T05:38:09;-11272.59;;;12.22;100.00
10145;BME280;5113;41.822;23.564;2023-05-14T05:41:15;-11276.53;;;12.37;100.00
10145;BME280;5113;41.822;23.564;2023-05-14T05:44:21;-11273.56;;;12.26;100.00
10145;BME280;5113;41.822;23.564;2023-05-14T05:47:29;-11271.47;;;12.18;100.00
10145;BME280;5113;41.822;23.564;2023-05-14T05:50:36;-11271.03;;;12.17;100.00
10145;BME280;5113;41.822;23.564;2023-05-14T05:53:42;-11275.13;;;12.32;100.00
10145;BME280;5113;41.822;23.564;2023-05-14T05:56:48;-11271.03;;;12.17;100.00
10145;BME280;5113;41.822;23.564;2023-05-14T05:59:54;-11276.38;;;12.36;100.00
10145;BME280;5113;41.822;23.564;2023-05-14T06:03:01;-11277.66;;;12.41;100.00
10145;BME280;5113;41.822;23.564;2023-05-14T06:06:08;-11278.50;;;12.44;100.00
10145;BME280;5113;41.822;23.564;2023-05-14T06:09:14;-11275.41;;;12.33;100.00
10145;BME280;5113;41.822;23.564;2023-05-14T06:12:20;-11290.59;;;12.87;100.00
10145;BME280;5113;41.822;23.564;2023-05-14T06:15:26;-11284.00;;;12.64;100.00
10145;BME280;5113;41.822;23.564;2023-05-14T06:18:34;-11282.72;;;12.59;100.00
10145;BME280;5113;41.822;23.564;2023-05-14T06:21:41;-11282.72;;;12.59;100.00
10145;BME280;5113;41.822;23.564;2023-05-14T06:24:48;-11278.63;;;12.44;100.00
10145;BME280;5113;41.822;23.564;2023-05-14T06:27:54;-11276.53;;;12.37;100.00
10145;BME280;5113;41.822;23.564;2023-05-14T06:31:00;-11277.09;;;12.39;100.00
10145;BME280;5113;41.822;23.564;2023-05-14T06:34:08;-11280.88;;;12.52;100.00
10145;BME280;5113;41.822;23.564;2023-05-14T06:37:14;-11275.69;;;12.34;100.00
10145;BME280;5113;41.822;23.564;2023-05-14T06:40:20;-11280.03;;;12.49;100.00
10145;BME280;5113;41.822;23.564;2023-05-14T06:43:27;-11281.16;;;12.53;100.00
10145;BME280;5113;41.822;23.564;2023-05-14T06:46:33;-11286.78;;;12.74;100.00
10145;BME280;5113;41.822;23.564;2023-05-14T06:49:41;-11287.34;;;12.76;100.00
10145;BME280;5113;41.822;23.564;2023-05-14T06:52:47;-11290.47;;;12.87;100.00
10145;BME280;5113;41.822;23.564;2023-05-14T06:55:53;-11289.63;;;12.84;100.00
10145;BME280;5113;41.822;23.564;2023-05-14T06:59:00;-11292.28;;;12.94;100.00
10145;BME280;5113;41.822;23.564;2023-05-14T07:02:06;-11296.38;;;13.08;100.00
10145;BME280;5113;41.822;23.564;2023-05-14T07:05:13;-11299.47;;;13.19;100.00
10145;BME280;5113;41.822;23.564;2023-05-14T07:08:20;-11303.28;;;13.33;100.00
10145;BME280;5113;41.822;23.564;2023-05-14T07:11:26;-11298.34;;;13.15;100.00
10145;BME280;5113;41.822;23.564;2023-05-14T07:14:32;-11303.28;;;13.33;100.00
10145;BME280;5113;41.822;23.564;2023-05-14T07:17:39;-11308.06;;;13.50;100.00
10145;BME280;5113;41.822;23.564;2023-05-14T07:20:47;-11305.94;;;13.43;100.00
10145;BME280;5113;41.822;23.564;2023-05-14T07:23:53;-11301.16;;;13.26;100.00
10145;BME280;5113;41.822;23.564;2023-05-14T07:26:59;-11303.41;;;13.34;100.00
10145;BME280;5113;41.822;23.564;2023-05-14T07:30:07;-11307.63;;;13.49;100.00
10145;BME280;5113;41.822;23.564;2023-05-14T07:33:13;-11305.38;;;13.41;100.00
10145;BME280;5113;41.822;23.564;2023-05-14T07:36:21;-11298.50;;;13.16;100.00
10145;BME280;5113;41.822;23.564;2023-05-14T07:39:27;-11306.78;;;13.46;100.00
10145;BME280;5113;41.822;23.564;2023-05-14T07:42:34;-11296.09;;;13.07;100.00
10145;BME280;5113;41.822;23.564;2023-05-14T07:45:41;-11297.78;;;13.13;100.00
10145;BME280;5113;41.822;23.564;2023-05-14T07:48:47;-11295.81;;;13.06;100.00
10145;BME280;5113;41.822;23.564;2023-05-14T07:51:55;-11299.19;;;13.18;100.00
10145;BME280;5113;41.822;23.564;2023-05-14T07:55:02;-11291.03;;;12.89;100.00
10145;BME280;5113;41.822;23.564;2023-05-14T07:58:08;-11293.28;;;12.97;100.00
10145;BME280;5113;41.822;23.564;2023-05-14T08:01:14;-11296.09;;;13.07;100.00
10145;BME280;5113;41.822;23.564;2023-05-14T08:04:21;-11288.47;;;12.80;100.00
10145;BME280;5113;41.822;23.564;2023-05-14T08:07:29;-11287.34;;;12.76;100.00
10145;BME280;5113;41.822;23.564;2023-05-14T08:10:35;-11286.94;;;12.74;100.00
10145;BME280;5113;41.822;23.564;2023-05-14T08:13:42;-11288.47;;;12.80;100.00
10145;BME280;5113;41.822;23.564;2023-05-14T08:16:48;-11282.44;;;12.58;100.00
10145;BME280;5113;41.822;23.564;2023-05-14T08:19:54;-11284.56;;;12.66;100.00
10145;BME280;5113;41.822;23.564;2023-05-14T08:23:02;-11285.97;;;12.71;100.00
10145;BME280;5113;41.822;23.564;2023-05-14T08:26:08;-11288.63;;;12.80;100.00
10145;BME280;5113;41.822;23.564;2023-05-14T08:29:15;-11288.78;;;12.81;100.00
10145;BME280;5113;41.822;23.564;2023-05-14T08:32:21;-11293.00;;;12.96;100.00
10145;BME280;5113;41.822;23.564;2023-05-14T08:35:28;-11294.53;;;13.02;100.00
10145;BME280;5113;41.822;23.564;2023-05-14T08:38:36;-11297.50;;;13.12;100.00
10145;BME280;5113;41.822;23.564;2023-05-14T08:41:43;-11293.00;;;12.96;100.00
10145;BME280;5113;41.822;23.564;2023-05-14T08:44:52;-11294.53;;;13.02;100.00
10145;BME280;5113;41.822;23.564;2023-05-14T08:48:02;-11294.97;;;13.03;100.00
10145;BME280;5113;41.822;23.564;2023-05-14T08:51:13;-11293.00;;;12.96;100.00
10145;BME280;5113;41.822;23.564;2023-05-14T08:54:21;-11292.16;;;12.93;100.00
10145;BME280;5113;41.822;23.564;2023-05-14T08:57:31;-11293.56;;;12.98;100.00
10145;BME280;5113;41.822;23.564;2023-05-14T09:00:37;-11293.69;;;12.99;100.00
10145;BME280;5113;41.822;23.564;2023-05-14T09:03:44;-11287.91;;;12.78;100.00
10145;BME280;5113;41.822;23.564;2023-05-14T09:06:52;-11296.09;;;13.07;100.00
10145;BME280;5113;41.822;23.564;2023-05-14T09:10:01;-11289.91;;;12.85;100.00
10145;BME280;5113;41.822;23.564;2023-05-14T09:13:08;-11294.97;;;13.03;100.00
10145;BME280;5113;41.822;23.564;2023-05-14T09:16:14;-11294.97;;;13.03;100.00
10145;BME280;5113;41.822;23.564;2023-05-14T09:19:21;-11297.78;;;13.13;100.00
10145;BME280;5113;41.822;23.564;2023-05-14T09:22:28;-11296.50;;;13.09;100.00
10145;BME280;5113;41.822;23.564;2023-05-14T09:25:37;-11294.13;;;13.00;100.00
10145;BME280;5113;41.822;23.564;2023-05-14T09:28:44;-11298.34;;;13.15;100.00
10145;BME280;5113;41.822;23.564;2023-05-14T09:31:50;-11296.94;;;13.10;100.00
10145;BME280;5113;41.822;23.564;2023-05-14T09:34:56;-11298.50;;;13.16;100.00
10145;BME280;5113;41.822;23.564;2023-05-14T09:38:03;-11298.78;;;13.17;100.00
10145;BME280;5113;41.822;23.564;2023-05-14T09:41:10;-11286.22;;;12.72;100.00
10145;BME280;5113;41.822;23.564;2023-05-14T09:44:17;-11291.59;;;12.91;100.00
10145;BME280;5113;41.822;23.564;2023-05-14T09:47:23;-11301.31;;;13.26;100.00
10145;BME280;5113;41.822;23.564;2023-05-14T09:50:30;-11301.03;;;13.25;100.00
10145;BME280;5113;41.822;23.564;2023-05-14T09:53:37;-11303.97;;;13.36;100.00
10145;BME280;5113;41.822;23.564;2023-05-14T09:56:46;-11307.50;;;13.48;100.00
10145;BME280;5113;41.822;23.564;2023-05-14T09:59:52;-11307.91;;;13.50;100.00
10145;BME280;5113;41.822;23.564;2023-05-14T10:03:03;-11301.59;;;13.27;100.00
10145;BME280;5113;41.822;23.564;2023-05-14T10:06:12;-11314.25;;;13.73;100.00
10145;BME280;5113;41.822;23.564;2023-05-14T10:09:21;-11303.56;;;13.34;100.00
10145;BME280;5113;41.822;23.564;2023-05-14T10:12:33;-11308.91;;;13.53;100.00
10145;BME280;5113;41.822;23.564;2023-05-14T10:15:45;-11309.47;;;13.55;100.00
10145;BME280;5113;41.822;23.564;2023-05-14T10:18:55;-11313.56;;;13.70;100.00
10145;BME280;5113;41.822;23.564;2023-05-14T10:22:08;-11316.38;;;13.80;100.00
10145;BME280;5113;41.822;23.564;2023-05-14T10:25:16;-11326.22;;;14.16;100.00
10145;BME280;5113;41.822;23.564;2023-05-14T10:28:25;-11330.03;;;14.30;100.00
10145;BME280;5113;41.822;23.564;2023-05-14T10:31:47;-11319.31;;;13.91;100.00
10145;BME280;5113;41.822;23.564;2023-05-14T10:34:53;-11337.78;;;14.58;100.00
10145;BME280;5113;41.822;23.564;2023-05-14T10:37:59;-11358.63;;;15.33;100.00
10145;BME280;5113;41.822;23.564;2023-05-14T10:41:10;-11373.56;;;15.87;100.00
10145;BME280;5113;41.822;23.564;2023-05-14T10:44:18;-11380.19;;;16.10;100.00
10145;BME280;5113;41.822;23.564;2023-05-14T10:47:25;-11348.63;;;14.97;100.00
10145;BME280;5113;41.822;23.564;2023-05-14T10:50:32;-11359.59;;;15.36;100.00
10145;BME280;5113;41.822;23.564;2023-05-14T10:53:39;-11365.53;;;15.58;100.00
10145;BME280;5113;41.822;23.564;2023-05-14T10:56:46;-11376.38;;;15.97;100.00
10145;BME280;5113;41.822;23.564;2023-05-14T10:59:55;-11368.47;;;15.68;100.00
10145;BME280;5113;41.822;23.564;2023-05-14T11:03:03;-11365.81;;;15.59;100.00
10145;BME280;5113;41.822;23.564;2023-05-14T11:06:12;-11355.22;;;15.20;100.00
10145;BME280;5113;41.822;23.564;2023-05-14T11:09:20;-11340.59;;;14.68;100.00
10145;BME280;5113;41.822;23.564;2023-05-14T11:12:26;-11339.75;;;14.65;100.00
10145;BME280;5113;41.822;23.564;2023-05-14T11:15:35;-11338.06;;;14.59;100.00
10145;BME280;5113;41.822;23.564;2023-05-14T11:18:44;-11327.91;;;14.22;100.00
10145;BME280;5113;41.822;23.564;2023-05-14T11:21:50;-11334.94;;;14.47;100.00
10145;BME280;5113;41.822;23.564;2023-05-14T11:24:56;-11335.09;;;14.48;100.00
10145;BME280;5113;41.822;23.564;2023-05-14T11:28:02;-11330.16;;;14.30;100.00
10145;BME280;5113;41.822;23.564;2023-05-14T11:31:10;-11334.94;;;14.47;100.00
10145;BME280;5113;41.822;23.564;2023-05-14T11:34:16;-11340.16;;;14.66;100.00
10145;BME280;5113;41.822;23.564;2023-05-14T11:37:22;-11339.75;;;14.65;100.00
10145;BME280;5113;41.822;23.564;2023-05-14T11:40:28;-11337.22;;;14.56;100.00
10145;BME280;5113;41.822;23.564;2023-05-14T11:43:35;-11326.22;;;14.16;100.00
10145;BME280;5113;41.822;23.564;2023-05-14T11:46:53;-11327.34;;;14.20;100.00
10145;BME280;5113;41.822;23.564;2023-05-14T11:49:59;-11339.19;;;14.63;100.00
10145;BME280;5113;41.822;23.564;2023-05-14T11:53:06;-11338.47;;;14.60;100.00
10145;BME280;5113;41.822;23.564;2023-05-14T11:56:12;-11335.38;;;14.49;100.00
10145;BME280;5113;41.822;23.564;2023-05-14T11:59:18;-11340.03;;;14.66;100.00
10145;BME280;5113;41.822;23.564;2023-05-14T12:02:27;-11355.78;;;15.23;100.00
10145;BME280;5113;41.822;23.564;2023-05-14T12:05:36;-11347.63;;;14.93;100.00
10145;BME280;5113;41.822;23.564;2023-05-14T12:08:43;-11345.81;;;14.86;100.00
10145;BME280;5113;41.822;23.564;2023-05-14T12:11:50;-11331.00;;;14.33;100.00
10145;BME280;5113;41.822;23.564;2023-05-14T12:14:58;-11342.84;;;14.76;100.00
10145;BME280;5113;41.822;23.564;2023-05-14T12:18:09;-11336.22;;;14.52;100.00
10145;BME280;5113;41.822;23.564;2023-05-14T12:21:28;-11325.38;;;14.13;100.00
10145;BME280;5113;41.822;23.564;2023-05-14T12:24:35;-11321.00;;;13.97;100.00
10145;BME280;5113;41.822;23.564;2023-05-14T12:27:44;-11327.34;;;14.20;100.00
10145;BME280;5113;41.822;23.564;2023-05-14T12:30:55;-11322.28;;;14.02;100.00
10145;BME280;5113;41.822;23.564;2023-05-14T12:34:03;-11318.91;;;13.89;100.00
10145;BME280;5113;41.822;23.564;2023-05-14T12:37:09;-11310.16;;;13.58;100.00
10145;BME280;5113;41.822;23.564;2023-05-14T12:40:15;-11312.72;;;13.67;100.00
10145;BME280;5113;41.822;23.564;2023-05-14T12:43:22;-11314.41;;;13.73;100.00
10145;BME280;5113;41.822;23.564;2023-05-14T12:46:29;-11312.13;;;13.65;100.00
10145;BME280;5113;41.822;23.564;2023-05-14T12:49:37;-11319.31;;;13.91;100.00
10145;BME280;5113;41.822;23.564;2023-05-14T12:52:43;-11310.16;;;13.58;100.00
10145;BME280;5113;41.822;23.564;2023-05-14T12:55:50;-11303.56;;;13.34;100.00
10145;BME280;5113;41.822;23.564;2023-05-14T12:58:57;-11309.75;;;13.57;100.00
10145;BME280;5113;41.822;23.564;2023-05-14T13:02:03;-11313.00;;;13.68;100.00
10145;BME280;5113;41.822;23.564;2023-05-14T13:05:11;-11308.75;;;13.53;100.00
10145;BME280;5113;41.822;23.564;2023-05-14T13:08:18;-11293.13;;;12.97;100.00
10145;BME280;5113;41.822;23.564;2023-05-14T13:11:25;-11302.56;;;13.31;100.00
10145;BME280;5113;41.822;23.564;2023-05-14T13:14:33;-11303.97;;;13.36;100.00
10145;BME280;5113;41.822;23.564;2023-05-14T13:17:40;-11307.63;;;13.49;100.00
10145;BME280;5113;41.822;23.564;2023-05-14T13:20:47;-11302.44;;;13.30;100.00
10145;BME280;5113;41.822;23.564;2023-05-14T13:23:54;-11292.00;;;12.93;100.00
10145;BME280;5113;41.822;23.564;2023-05-14T13:27:00;-11300.03;;;13.21;100.00
10145;BME280;5113;41.822;23.564;2023-05-14T13:30:07;-11290.75;;;12.88;100.00
10145;BME280;5113;41.822;23.564;2023-05-14T13:33:13;-11291.03;;;12.89;100.00
10145;BME280;5113;41.822;23.564;2023-05-14T13:36:21;-11298.63;;;13.16;100.00
10145;BME280;5113;41.822;23.564;2023-05-14T13:39:27;-11292.00;;;12.93;100.00
10145;BME280;5113;41.822;23.564;2023-05-14T13:42:36;-11287.06;;;12.75;100.00
10145;BME280;5113;41.822;23.564;2023-05-14T13:45:43;-11287.34;;;12.76;100.00
10145;BME280;5113;41.822;23.564;2023-05-14T13:48:49;-11295.81;;;13.06;100.00
10145;BME280;5113;41.822;23.564;2023-05-14T13:51:57;-11295.53;;;13.05;100.00
10145;BME280;5113;41.822;23.564;2023-05-14T13:55:04;-11299.19;;;13.18;100.00
10145;BME280;5113;41.822;23.564;2023-05-14T13:58:11;-11302.56;;;13.31;100.00
10145;BME280;5113;41.822;23.564;2023-05-14T14:01:18;-11298.63;;;13.16;100.00
10145;BME280;5113;41.822;23.564;2023-05-14T14:04:24;-11300.47;;;13.23;100.00
10145;BME280;5113;41.822;23.564;2023-05-14T14:07:34;-11305.81;;;13.42;100.00
10145;BME280;5113;41.822;23.564;2023-05-14T14:10:40;-11303.28;;;13.33;100.00
10145;BME280;5113;41.822;23.564;2023-05-14T14:13:47;-11296.66;;;13.09;100.00
10145;BME280;5113;41.822;23.564;2023-05-14T14:16:53;-11291.03;;;12.89;100.00
10145;BME280;5113;41.822;23.564;2023-05-14T14:19:59;-11301.59;;;13.27;100.00
10145;BME280;5113;41.822;23.564;2023-05-14T14:23:07;-11299.19;;;13.18;100.00
10145;BME280;5113;41.822;23.564;2023-05-14T14:26:13;-11299.06;;;13.18;100.00
10145;BME280;5113;41.822;23.564;2023-05-14T14:29:20;-11297.63;;;13.13;100.00
10145;BME280;5113;41.822;23.564;2023-05-14T14:32:28;-11299.75;;;13.20;100.00
10145;BME280;5113;41.822;23.564;2023-05-14T14:35:34;-11296.66;;;13.09;100.00
10145;BME280;5113;41.822;23.564;2023-05-14T14:38:42;-11286.22;;;12.72;100.00
10145;BME280;5113;41.822;23.564;2023-05-14T14:41:48;-11296.09;;;13.07;100.00
10145;BME280;5113;41.822;23.564;2023-05-14T14:44:55;-11292.16;;;12.93;100.00
10145;BME280;5113;41.822;23.564;2023-05-14T14:48:21;-11274.84;;;12.31;100.00
10145;BME280;5113;41.822;23.564;2023-05-14T14:51:27;-11278.22;;;12.43;100.00
10145;BME280;5113;41.822;23.564;2023-05-14T14:54:36;-11289.91;;;12.85;100.00
10145;BME280;5113;41.822;23.564;2023-05-14T14:57:43;-11278.34;;;12.43;100.00
10145;BME280;5113;41.822;23.564;2023-05-14T15:00:51;-11283.41;;;12.62;100.00
10145;BME280;5113;41.822;23.564;2023-05-14T15:03:57;-11282.28;;;12.57;100.00
10145;BME280;5113;41.822;23.564;2023-05-14T15:07:04;-11276.66;;;12.37;100.00
10145;BME280;5113;41.822;23.564;2023-05-14T15:10:12;-11284.97;;;12.67;100.00
10145;BME280;5113;41.822;23.564;2023-05-14T15:13:18;-11275.53;;;12.33;100.00
10145;BME280;5113;41.822;23.564;2023-05-14T15:16:24;-11266.53;;;12.01;100.00
10145;BME280;5113;41.822;23.564;2023-05-14T15:19:30;-11277.78;;;12.41;100.00
10145;BME280;5113;41.822;23.564;2023-05-14T15:22:37;-11275.69;;;12.34;100.00
10145;BME280;5113;41.822;23.564;2023-05-14T15:25:44;-11277.38;;;12.40;100.00
10145;BME280;5113;41.822;23.564;2023-05-14T15:28:50;-11289.75;;;12.84;100.00
10145;BME280;5113;41.822;23.564;2023-05-14T15:31:56;-11277.38;;;12.40;100.00
10145;BME280;5113;41.822;23.564;2023-05-14T15:35:03;-11284.97;;;12.67;100.00
10145;BME280;5113;41.822;23.564;2023-05-14T15:38:10;-11280.03;;;12.49;100.00
10145;BME280;5113;41.822;23.564;2023-05-14T15:41:18;-11286.50;;;12.73;100.00
10145;BME280;5113;41.822;23.564;2023-05-14T15:44:24;-11279.34;;;12.47;100.00
10145;BME280;5113;41.822;23.564;2023-05-14T15:47:31;-11282.56;;;12.59;100.00
10145;BME280;5113;41.822;23.564;2023-05-14T15:50:37;-11277.50;;;12.40;100.00
10145;BME280;5113;41.822;23.564;2023-05-14T15:53:43;-11283.69;;;12.63;100.00
10145;BME280;5113;41.822;23.564;2023-05-14T15:56:51;-11277.94;;;12.42;100.00
10145;BME280;5113;41.822;23.564;2023-05-14T15:59:57;-11282.16;;;12.57;100.00
10145;BME280;5113;41.822;23.564;2023-05-14T16:03:04;-11282.44;;;12.58;100.00
10145;BME280;5113;41.822;23.564;2023-05-14T16:06:11;-11286.94;;;12.74;100.00